Time;durP1;ratioP1;P1;durP2;ratioP2;P2;SDS_P1;SDS_P2;PMS_P1;PMS_P2;Temp;Humidity;BMP_temperature;BMP_pressure;BME280_temperature;BME280_humidity;BME280_pressure;Samples;Min_cycle;Max_cycle;Signal;HPM_P1;HPM_P2
2022/12/30 15:48:42;;;;;;;3.58;2.15;;;7.90;99.90;;;;;;7093786;19;10002444;-74
2022/12/30 15:51:18;;;;;;;5.75;2.50;;;7.60;99.90;;;;;;7568263;19;20606;-74
2022/12/30 15:54:00;;;;;;;3.65;1.92;;;7.60;99.90;;;;;;7603436;19;20022;-73
2022/12/30 15:56:34;;;;;;;3.67;2.28;;;7.60;99.90;;;;;;7614977;19;20014;-73
2022/12/30 15:59:13;;;;;;;4.88;2.80;;;7.70;99.90;;;;;;7575801;19;20014;-73
2022/12/30 16:01:47;;;;;;;3.45;2.25;;;7.70;99.90;;;;;;7590585;19;20015;-73
2022/12/30 16:04:23;;;;;;;3.95;2.70;;;7.80;99.90;;;;;;7580826;19;20484;-74
2022/12/30 16:06:57;;;;;;;3.30;2.03;;;7.80;99.90;;;;;;7565862;19;20261;-75
2022/12/30 16:09:43;;;;;;;4.22;2.33;;;7.80;99.90;;;;;;7558204;19;20043;-73
2022/12/30 16:12:27;;;;;;;3.65;2.47;;;7.90;99.90;;;;;;7588153;19;20021;-73
2022/12/30 16:15:06;;;;;;;5.30;2.65;;;7.80;99.90;;;;;;7592606;19;20090;-75
2022/12/30 16:17:47;;;;;;;9.18;3.70;;;7.80;99.90;;;;;;7579552;19;20014;-75
2022/12/30 16:20:44;;;;;;;6.35;3.88;;;7.80;99.90;;;;;;7574274;19;20536;-73
2022/12/30 16:23:20;;;;;;;7.72;4.07;;;7.90;99.90;;;;;;7580582;19;23101;-75
2022/12/30 16:25:58;;;;;;;9.85;3.92;;;7.90;99.90;;;;;;7592236;19;20057;-73
2022/12/30 16:28:38;;;;;;;38.72;20.00;;;7.90;99.90;;;;;;7590727;19;20021;-73
2022/12/30 16:31:14;;;;;;;21.27;12.45;;;7.90;99.90;;;;;;7608203;19;20022;-75
2022/12/30 16:33:47;;;;;;;13.00;5.00;;;8.00;99.90;;;;;;7595456;19;20017;-74
2022/12/30 16:36:20;;;;;;;13.32;6.20;;;8.00;99.90;;;;;;7594776;19;20102;-73
2022/12/30 16:38:53;;;;;;;14.63;8.48;;;7.90;99.90;;;;;;7605694;19;20010;-74
2022/12/30 16:41:25;;;;;;;7.95;5.38;;;7.90;99.90;;;;;;7621871;19;20018;-74
2022/12/30 16:43:57;;;;;;;8.88;5.40;;;7.90;99.90;;;;;;7583853;19;20645;-74
2022/12/30 16:46:30;;;;;;;9.82;6.50;;;7.90;99.90;;;;;;7599791;19;20048;-75
2022/12/30 16:49:02;;;;;;;17.60;8.95;;;8.00;99.90;;;;;;7604598;19;20491;-74
2022/12/30 16:51:47;;;;;;;13.50;7.30;;;8.00;99.90;;;;;;7600332;19;21088;-74
2022/12/30 16:54:21;;;;;;;9.35;6.05;;;8.00;99.90;;;;;;7598797;19;20244;-73
2022/12/30 16:56:55;;;;;;;;;;;8.10;99.90;;;;;;7585759;19;20091;-74
2022/12/30 16:59:27;;;;;;;12.65;6.10;;;8.10;99.90;;;;;;7579735;19;19914;-75
2022/12/30 17:02:00;;;;;;;22.50;15.13;;;7.90;99.90;;;;;;7570495;19;20018;-75
2022/12/30 17:04:33;;;;;;;14.27;9.05;;;7.90;99.90;;;;;;7570047;19;20018;-73
2022/12/30 17:07:15;;;;;;;13.20;7.10;;;7.80;99.90;;;;;;7566741;19;20627;-73
2022/12/30 17:12:37;;;;;;;15.18;6.78;;;7.80;99.90;;;;;;7549533;19;20010;-73
2022/12/30 17:15:12;;;;;;;10.27;7.00;;;7.80;99.90;;;;;;7559121;19;20029;-73
2022/12/30 17:17:44;;;;;;;9.70;6.50;;;7.80;99.90;;;;;;7562226;19;20655;-73
2022/12/30 17:20:21;;;;;;;8.30;5.47;;;7.80;99.90;;;;;;7565619;19;20017;-73
2022/12/30 17:22:58;;;;;;;10.55;6.35;;;7.80;99.90;;;;;;7579108;19;20039;-73
2022/12/30 17:25:31;;;;;;;10.55;6.95;;;7.90;99.90;;;;;;7576455;19;20011;-73
2022/12/30 17:28:03;;;;;;;;;;;7.90;99.90;;;;;;7575045;19;20471;-74
2022/12/30 17:30:35;;;;;;;17.48;9.38;;;7.90;99.90;;;;;;7566137;19;19946;-73
2022/12/30 17:33:07;;;;;;;19.13;9.68;;;7.90;99.90;;;;;;7553091;19;20029;-73
2022/12/30 17:35:39;;;;;;;15.23;9.50;;;7.90;99.90;;;;;;7557882;19;20318;-73
2022/12/30 17:38:11;;;;;;;21.02;9.85;;;7.90;99.90;;;;;;7559683;19;20022;-73
2022/12/30 17:41:02;;;;;;;19.60;10.68;;;7.90;99.90;;;;;;7552628;19;20017;-75
2022/12/30 17:43:34;;;;;;;25.23;13.48;;;7.80;99.90;;;;;;7507850;19;20017;-74
2022/12/30 17:46:06;;;;;;;22.90;11.30;;;7.80;99.90;;;;;;7589224;19;20033;-76
2022/12/30 17:48:39;;;;;;;29.63;14.13;;;7.80;99.90;;;;;;7562319;19;20033;-75
2022/12/30 17:51:14;;;;;;;24.45;14.18;;;7.80;99.90;;;;;;7506825;19;20685;-76
2022/12/30 17:53:46;;;;;;;25.48;13.45;;;7.60;99.90;;;;;;7558876;19;21447;-73
2022/12/30 17:56:21;;;;;;;25.80;14.18;;;7.60;99.90;;;;;;7541236;19;20090;-73
2022/12/30 17:58:54;;;;;;;26.50;15.35;;;7.60;99.90;;;;;;7566804;19;20025;-73
2022/12/30 18:01:32;;;;;;;24.90;14.20;;;7.70;99.90;;;;;;7550120;19;20018;-75
2022/12/30 18:04:04;;;;;;;25.50;14.50;;;7.70;99.90;;;;;;7550402;19;20015;-75
2022/12/30 18:06:36;;;;;;;24.13;15.65;;;7.60;99.90;;;;;;7548305;19;20021;-75
2022/12/30 18:09:10;;;;;;;21.15;13.93;;;7.60;99.90;;;;;;7546786;19;20018;-72
2022/12/30 18:11:42;;;;;;;;;;;7.60;99.90;;;;;;7571306;19;20018;-72
2022/12/30 18:14:24;;;;;;;22.80;13.95;;;7.50;99.90;;;;;;7552429;19;19934;-76
2022/12/30 18:16:56;;;;;;;30.08;17.02;;;7.40;99.90;;;;;;7571089;19;20062;-76
2022/12/30 18:19:29;;;;;;;30.95;17.70;;;7.40;99.90;;;;;;7569380;19;22296;-77
2022/12/30 18:22:02;;;;;;;32.22;16.88;;;7.40;99.90;;;;;;7578649;19;20006;-76
2022/12/30 18:24:34;;;;;;;30.33;17.08;;;7.50;99.90;;;;;;7560137;19;20094;-76
2022/12/30 18:27:07;;;;;;;30.80;17.63;;;7.50;99.90;;;;;;7568486;19;20061;-76
2022/12/30 18:29:39;;;;;;;27.73;17.55;;;7.50;99.90;;;;;;7546257;19;20802;-76
2022/12/30 18:32:11;;;;;;;24.08;15.32;;;7.50;99.90;;;;;;7579070;19;20373;-73
2022/12/30 18:34:44;;;;;;;32.10;20.33;;;7.40;99.90;;;;;;7571199;19;20090;-75
2022/12/30 18:37:16;;;;;;;27.42;16.38;;;7.30;99.90;;;;;;7578669;19;20017;-76
2022/12/30 18:39:48;;;;;;;28.58;18.33;;;7.30;99.90;;;;;;7539399;19;20148;-73
2022/12/30 18:42:20;;;;;;;29.95;16.80;;;7.40;99.90;;;;;;7574172;19;20019;-75
2022/12/30 18:44:52;;;;;;;31.17;18.50;;;7.40;99.90;;;;;;7563849;19;20014;-75
2022/12/30 18:47:24;;;;;;;25.20;15.55;;;7.30;99.90;;;;;;7564784;19;20022;-74
2022/12/30 18:49:57;;;;;;;31.52;17.23;;;7.30;99.90;;;;;;7580225;19;20014;-74
2022/12/30 18:52:29;;;;;;;21.75;14.25;;;7.30;99.90;;;;;;7589523;19;20014;-75
2022/12/30 18:55:01;;;;;;;24.08;14.70;;;7.40;99.90;;;;;;7559405;19;20053;-74
2022/12/30 18:57:33;;;;;;;19.17;12.15;;;7.30;99.90;;;;;;7562141;19;20025;-74
2022/12/30 19:00:06;;;;;;;24.08;13.00;;;7.30;99.90;;;;;;7538966;19;20014;-74
2022/12/30 19:02:38;;;;;;;20.97;11.77;;;7.30;99.90;;;;;;7549428;19;20014;-74
2022/12/30 19:05:15;;;;;;;19.23;11.50;;;7.20;99.90;;;;;;7568381;19;20025;-73
2022/12/30 19:07:48;;;;;;;15.93;10.90;;;7.10;99.90;;;;;;7583180;19;20010;-74
2022/12/30 19:10:40;;;;;;;18.30;11.25;;;7.20;99.90;;;;;;7555770;19;20015;-74
2022/12/30 19:13:12;;;;;;;25.65;13.05;;;7.20;99.90;;;;;;7539860;19;20080;-75
2022/12/30 19:15:45;;;;;;;19.20;12.52;;;7.20;99.90;;;;;;7560882;19;20010;-74
2022/12/30 19:18:17;;;;;;;24.05;13.27;;;7.30;99.90;;;;;;7547133;19;20337;-75
2022/12/30 19:20:49;;;;;;;22.13;13.05;;;7.20;99.90;;;;;;7539364;19;20020;-75
2022/12/30 19:23:21;;;;;;;22.92;12.02;;;7.20;99.90;;;;;;7568245;19;20133;-77
2022/12/30 19:25:53;;;;;;;22.17;12.38;;;7.20;99.90;;;;;;7542047;19;20014;-76
2022/12/30 19:28:27;;;;;;;19.50;13.00;;;7.20;99.90;;;;;;7537984;19;20021;-76
2022/12/30 19:30:59;;;;;;;22.65;13.20;;;7.30;99.90;;;;;;7557375;19;20022;-76
2022/12/30 19:33:31;;;;;;;21.35;12.25;;;7.30;99.90;;;;;;7570062;19;20458;-75
2022/12/30 19:36:05;;;;;;;24.90;11.13;;;7.20;99.90;;;;;;7572094;19;20094;-75
2022/12/30 19:38:37;;;;;;;23.20;10.55;;;7.30;99.90;;;;;;7560835;19;21067;-73
2022/12/30 19:41:21;;;;;;;16.17;9.45;;;7.30;99.90;;;;;;7569867;19;20057;-75
2022/12/30 19:44:06;;;;;;;17.52;10.25;;;7.30;99.90;;;;;;7560661;19;20021;-75
2022/12/30 19:46:39;;;;;;;19.45;10.10;;;7.40;99.90;;;;;;7557187;19;20010;-75
2022/12/30 19:49:13;;;;;;;17.70;10.43;;;7.40;99.90;;;;;;7556731;19;20018;-76
2022/12/30 19:51:49;;;;;;;19.15;11.05;;;7.40;99.90;;;;;;7567211;19;20015;-74
2022/12/30 19:54:21;;;;;;;21.08;11.48;;;7.40;99.90;;;;;;7560766;19;20775;-75
2022/12/30 19:56:53;;;;;;;25.63;11.13;;;7.40;99.90;;;;;;7578786;19;21127;-73
2022/12/30 19:59:25;;;;;;;21.05;12.13;;;7.40;99.90;;;;;;7570804;19;20014;-74
2022/12/30 20:01:58;;;;;;;25.35;12.20;;;7.50;99.90;;;;;;7577201;19;20050;-74
2022/12/30 20:04:30;;;;;;;21.95;10.48;;;7.50;99.90;;;;;;7576775;19;21387;-74
2022/12/30 20:07:02;;;;;;;19.38;10.05;;;7.50;99.90;;;;;;7594592;19;20006;-74
2022/12/30 20:09:34;;;;;;;23.52;9.88;;;7.50;99.90;;;;;;7576387;19;20014;-74
2022/12/30 20:12:06;;;;;;;19.77;9.60;;;7.50;99.90;;;;;;7586864;19;20007;-73
2022/12/30 20:14:38;;;;;;;22.90;8.48;;;7.50;99.90;;;;;;7053994;19;10000191;-73
2022/12/30 20:17:10;;;;;;;23.17;9.05;;;7.50;99.90;;;;;;7559520;19;21724;-75
2022/12/30 20:19:42;;;;;;;25.40;10.63;;;7.60;99.90;;;;;;7558986;19;20022;-74
2022/12/30 20:22:14;;;;;;;19.00;9.88;;;7.50;99.90;;;;;;7560921;19;20792;-74
2022/12/30 20:24:49;;;;;;;16.55;8.30;;;7.50;99.90;;;;;;7554020;19;20006;-75
2022/12/30 20:27:21;;;;;;;13.77;7.53;;;7.60;99.90;;;;;;7568769;19;20015;-74
2022/12/30 20:29:53;;;;;;;12.98;7.57;;;7.60;99.90;;;;;;7570560;19;20021;-74
2022/12/30 20:32:28;;;;;;;12.07;7.55;;;7.70;99.90;;;;;;7562089;19;20084;-74
2022/12/30 20:35:00;;;;;;;14.70;7.38;;;7.70;99.90;;;;;;7552171;19;20054;-73
2022/12/30 20:37:32;;;;;;;19.92;8.45;;;7.80;99.90;;;;;;7544177;19;20006;-74
2022/12/30 20:40:08;;;;;;;13.85;8.02;;;7.70;99.90;;;;;;7551867;19;20014;-76
2022/12/30 20:42:40;;;;;;;18.00;8.52;;;7.80;99.90;;;;;;7555824;19;20025;-75
2022/12/30 20:45:12;;;;;;;18.38;9.45;;;7.80;99.90;;;;;;7558764;19;20010;-75
2022/12/30 20:47:45;;;;;;;15.90;8.68;;;7.80;99.90;;;;;;7540588;19;20141;-76
2022/12/30 20:50:17;;;;;;;20.33;10.23;;;7.80;99.90;;;;;;7568263;19;20015;-75
2022/12/30 20:52:49;;;;;;;26.30;13.70;;;7.80;99.90;;;;;;7542707;19;20657;-76
2022/12/30 20:55:21;;;;;;;49.55;23.67;;;7.70;99.90;;;;;;7544557;19;20015;-75
2022/12/30 20:57:54;;;;;;;42.67;20.55;;;7.70;99.90;;;;;;7542830;19;20025;-76
2022/12/30 21:00:26;;;;;;;304.05;170.23;;;7.80;99.90;;;;;;7563304;19;20022;-75
2022/12/30 21:02:58;;;;;;;53.78;28.50;;;7.80;99.90;;;;;;7566128;19;20010;-74
2022/12/30 21:05:30;;;;;;;27.42;16.05;;;7.90;99.90;;;;;;7540301;19;20134;-73
2022/12/30 21:08:22;;;;;;;26.92;13.80;;;7.90;99.90;;;;;;7559650;19;20039;-74
2022/12/30 21:10:59;;;;;;;20.42;10.60;;;7.90;99.90;;;;;;7553626;19;20033;-73
2022/12/30 21:13:36;;;;;;;16.42;9.45;;;7.90;99.90;;;;;;7557511;19;20011;-73
